sensor_id;sensor_type;location;lat;lon;timestamp;temperature;humidity
42965;DHT22;28604;51.204;22.552;2023-06-26T00:02:26;19.80;75.30
42965;DHT22;28604;51.204;22.552;2023-06-26T00:04:51;19.80;75.60
42965;DHT22;28604;51.204;22.552;2023-06-26T00:07:20;19.80;75.30
42965;DHT22;28604;51.204;22.552;2023-06-26T00:09:46;19.70;75.20
42965;DHT22;28604;51.204;22.552;2023-06-26T00:12:12;19.70;75.10
42965;DHT22;28604;51.204;22.552;2023-06-26T00:14:38;19.70;75.40
42965;DHT22;28604;51.204;22.552;2023-06-26T00:17:04;19.60;75.10
42965;DHT22;28604;51.204;22.552;2023-06-26T00:19:30;19.60;75.90
42965;DHT22;28604;51.204;22.552;2023-06-26T00:21:56;19.60;75.70
42965;DHT22;28604;51.204;22.552;2023-06-26T00:24:22;19.50;75.90
42965;DHT22;28604;51.204;22.552;2023-06-26T00:26:48;19.50;76.60
42965;DHT22;28604;51.204;22.552;2023-06-26T00:29:14;19.50;76.80
42965;DHT22;28604;51.204;22.552;2023-06-26T00:31:40;19.50;76.80
42965;DHT22;28604;51.204;22.552;2023-06-26T00:34:06;19.50;76.70
42965;DHT22;28604;51.204;22.552;2023-06-26T00:36:32;19.40;76.50
42965;DHT22;28604;51.204;22.552;2023-06-26T00:38:59;19.40;76.40
42965;DHT22;28604;51.204;22.552;2023-06-26T00:41:27;19.40;76.10
42965;DHT22;28604;51.204;22.552;2023-06-26T00:43:53;19.40;76.10
42965;DHT22;28604;51.204;22.552;2023-06-26T00:46:19;19.30;75.70
42965;DHT22;28604;51.204;22.552;2023-06-26T00:48:46;19.30;75.90
42965;DHT22;28604;51.204;22.552;2023-06-26T00:51:13;19.20;75.90
42965;DHT22;28604;51.204;22.552;2023-06-26T00:53:39;19.30;76.00
42965;DHT22;28604;51.204;22.552;2023-06-26T00:56:05;19.20;76.40
42965;DHT22;28604;51.204;22.552;2023-06-26T00:58:32;19.10;76.70
42965;DHT22;28604;51.204;22.552;2023-06-26T01:03:54;19.10;77.50
42965;DHT22;28604;51.204;22.552;2023-06-26T01:06:23;19.00;77.70
42965;DHT22;28604;51.204;22.552;2023-06-26T01:08:50;19.00;77.30
42965;DHT22;28604;51.204;22.552;2023-06-26T01:11:18;19.00;77.50
42965;DHT22;28604;51.204;22.552;2023-06-26T01:13:44;19.00;77.60
42965;DHT22;28604;51.204;22.552;2023-06-26T01:16:11;19.00;77.60
42965;DHT22;28604;51.204;22.552;2023-06-26T01:18:39;18.90;77.40
42965;DHT22;28604;51.204;22.552;2023-06-26T01:21:09;18.90;77.40
42965;DHT22;28604;51.204;22.552;2023-06-26T01:26:20;18.90;77.70
42965;DHT22;28604;51.204;22.552;2023-06-26T01:28:49;18.90;77.70
42965;DHT22;28604;51.204;22.552;2023-06-26T01:31:17;18.80;77.30
42965;DHT22;28604;51.204;22.552;2023-06-26T01:33:43;18.80;77.40
42965;DHT22;28604;51.204;22.552;2023-06-26T01:36:10;18.70;78.20
42965;DHT22;28604;51.204;22.552;2023-06-26T01:38:36;18.80;78.70
42965;DHT22;28604;51.204;22.552;2023-06-26T01:41:03;18.70;79.00
42965;DHT22;28604;51.204;22.552;2023-06-26T01:44:07;18.80;78.90
42965;DHT22;28604;51.204;22.552;2023-06-26T01:47:03;18.80;78.10
42965;DHT22;28604;51.204;22.552;2023-06-26T01:49:37;18.80;79.50
42965;DHT22;28604;51.204;22.552;2023-06-26T01:52:25;18.70;79.10
42965;DHT22;28604;51.204;22.552;2023-06-26T01:55:05;18.70;79.00
42965;DHT22;28604;51.204;22.552;2023-06-26T01:57:34;18.60;79.60
42965;DHT22;28604;51.204;22.552;2023-06-26T02:00:01;18.60;79.70
42965;DHT22;28604;51.204;22.552;2023-06-26T02:02:29;18.60;79.10
42965;DHT22;28604;51.204;22.552;2023-06-26T02:04:55;18.60;79.10
42965;DHT22;28604;51.204;22.552;2023-06-26T02:07:22;18.60;79.30
42965;DHT22;28604;51.204;22.552;2023-06-26T02:09:48;18.50;79.10
42965;DHT22;28604;51.204;22.552;2023-06-26T02:12:14;18.50;79.80
42965;DHT22;28604;51.204;22.552;2023-06-26T02:14:40;18.50;78.70
42965;DHT22;28604;51.204;22.552;2023-06-26T02:17:06;18.50;78.60
42965;DHT22;28604;51.204;22.552;2023-06-26T02:19:34;18.50;78.90
42965;DHT22;28604;51.204;22.552;2023-06-26T02:22:00;18.40;78.60
42965;DHT22;28604;51.204;22.552;2023-06-26T02:24:26;18.40;78.80
42965;DHT22;28604;51.204;22.552;2023-06-26T02:26:57;18.40;78.90
42965;DHT22;28604;51.204;22.552;2023-06-26T02:29:23;18.40;78.90
42965;DHT22;28604;51.204;22.552;2023-06-26T02:31:49;18.40;78.60
42965;DHT22;28604;51.204;22.552;2023-06-26T02:34:15;18.40;78.90
42965;DHT22;28604;51.204;22.552;2023-06-26T02:36:41;18.40;80.00
42965;DHT22;28604;51.204;22.552;2023-06-26T02:39:07;18.40;79.60
42965;DHT22;28604;51.204;22.552;2023-06-26T02:41:34;18.40;79.70
42965;DHT22;28604;51.204;22.552;2023-06-26T02:44:00;18.30;79.60
42965;DHT22;28604;51.204;22.552;2023-06-26T02:46:26;18.30;79.20
42965;DHT22;28604;51.204;22.552;2023-06-26T02:48:52;18.30;78.50
42965;DHT22;28604;51.204;22.552;2023-06-26T02:51:18;18.30;78.40
42965;DHT22;28604;51.204;22.552;2023-06-26T02:53:45;18.30;78.60
42965;DHT22;28604;51.204;22.552;2023-06-26T02:56:11;18.30;78.80
42965;DHT22;28604;51.204;22.552;2023-06-26T02:58:37;18.30;79.30
42965;DHT22;28604;51.204;22.552;2023-06-26T03:01:03;18.20;80.00
42965;DHT22;28604;51.204;22.552;2023-06-26T03:03:29;18.30;79.70
42965;DHT22;28604;51.204;22.552;2023-06-26T03:05:56;18.30;79.50
42965;DHT22;28604;51.204;22.552;2023-06-26T03:08:23;18.30;79.00
42965;DHT22;28604;51.204;22.552;2023-06-26T03:10:49;18.30;80.20
42965;DHT22;28604;51.204;22.552;2023-06-26T03:13:15;18.20;80.50
42965;DHT22;28604;51.204;22.552;2023-06-26T03:15:41;18.30;80.50
42965;DHT22;28604;51.204;22.552;2023-06-26T03:18:07;18.30;80.20
42965;DHT22;28604;51.204;22.552;2023-06-26T03:20:33;18.30;80.10
42965;DHT22;28604;51.204;22.552;2023-06-26T03:22:59;18.40;79.70
42965;DHT22;28604;51.204;22.552;2023-06-26T03:25:25;18.40;79.40
42965;DHT22;28604;51.204;22.552;2023-06-26T03:28:08;18.40;78.90
42965;DHT22;28604;51.204;22.552;2023-06-26T03:30:35;18.40;79.30
42965;DHT22;28604;51.204;22.552;2023-06-26T03:33:01;18.40;78.60
42965;DHT22;28604;51.204;22.552;2023-06-26T03:35:27;18.40;78.70
42965;DHT22;28604;51.204;22.552;2023-06-26T03:37:53;18.40;79.20
42965;DHT22;28604;51.204;22.552;2023-06-26T03:40:20;18.50;79.20
42965;DHT22;28604;51.204;22.552;2023-06-26T03:42:46;18.50;79.10
42965;DHT22;28604;51.204;22.552;2023-06-26T03:45:12;18.50;81.40
42965;DHT22;28604;51.204;22.552;2023-06-26T03:47:39;18.60;81.40
42965;DHT22;28604;51.204;22.552;2023-06-26T03:50:05;18.60;81.00
42965;DHT22;28604;51.204;22.552;2023-06-26T03:52:31;18.60;80.80
42965;DHT22;28604;51.204;22.552;2023-06-26T03:54:58;18.70;81.20
42965;DHT22;28604;51.204;22.552;2023-06-26T03:57:24;18.70;81.30
42965;DHT22;28604;51.204;22.552;2023-06-26T03:59:51;18.70;81.10
42965;DHT22;28604;51.204;22.552;2023-06-26T04:02:17;18.80;80.90
42965;DHT22;28604;51.204;22.552;2023-06-26T04:04:43;18.80;80.60
42965;DHT22;28604;51.204;22.552;2023-06-26T04:07:09;18.90;80.00
42965;DHT22;28604;51.204;22.552;2023-06-26T04:09:36;18.90;79.00
42965;DHT22;28604;51.204;22.552;2023-06-26T04:12:03;19.00;77.80
42965;DHT22;28604;51.204;22.552;2023-06-26T04:14:29;19.00;76.80
42965;DHT22;28604;51.204;22.552;2023-06-26T04:16:55;19.00;76.50
42965;DHT22;28604;51.204;22.552;2023-06-26T04:19:23;19.00;76.30
42965;DHT22;28604;51.204;22.552;2023-06-26T04:21:49;19.10;77.60
42965;DHT22;28604;51.204;22.552;2023-06-26T04:24:15;19.10;78.40
42965;DHT22;28604;51.204;22.552;2023-06-26T04:26:41;19.20;78.90
42965;DHT22;28604;51.204;22.552;2023-06-26T04:29:07;19.30;78.90
42965;DHT22;28604;51.204;22.552;2023-06-26T04:31:33;19.30;78.70
42965;DHT22;28604;51.204;22.552;2023-06-26T04:33:59;19.30;77.70
42965;DHT22;28604;51.204;22.552;2023-06-26T04:36:25;19.40;76.80
42965;DHT22;28604;51.204;22.552;2023-06-26T04:38:58;19.50;76.30
42965;DHT22;28604;51.204;22.552;2023-06-26T04:41:24;19.50;75.70
42965;DHT22;28604;51.204;22.552;2023-06-26T04:43:50;19.60;75.20
42965;DHT22;28604;51.204;22.552;2023-06-26T04:46:16;19.60;75.00
42965;DHT22;28604;51.204;22.552;2023-06-26T04:48:42;19.70;75.30
42965;DHT22;28604;51.204;22.552;2023-06-26T04:51:11;19.70;75.80
42965;DHT22;28604;51.204;22.552;2023-06-26T04:53:37;19.80;76.40
42965;DHT22;28604;51.204;22.552;2023-06-26T04:56:03;19.80;76.60
42965;DHT22;28604;51.204;22.552;2023-06-26T04:58:29;19.90;77.00
42965;DHT22;28604;51.204;22.552;2023-06-26T05:00:55;19.90;77.80
42965;DHT22;28604;51.204;22.552;2023-06-26T05:03:22;20.00;77.50
42965;DHT22;28604;51.204;22.552;2023-06-26T05:05:48;20.10;77.20
42965;DHT22;28604;51.204;22.552;2023-06-26T05:08:18;20.10;77.50
42965;DHT22;28604;51.204;22.552;2023-06-26T05:10:45;20.20;77.60
42965;DHT22;28604;51.204;22.552;2023-06-26T05:13:11;20.30;77.50
42965;DHT22;28604;51.204;22.552;2023-06-26T05:15:37;20.40;77.20
42965;DHT22;28604;51.204;22.552;2023-06-26T05:18:03;20.40;77.20
42965;DHT22;28604;51.204;22.552;2023-06-26T05:20:29;20.50;76.90
42965;DHT22;28604;51.204;22.552;2023-06-26T05:22:55;20.50;77.50
42965;DHT22;28604;51.204;22.552;2023-06-26T05:25:23;20.60;76.70
42965;DHT22;28604;51.204;22.552;2023-06-26T05:27:50;20.60;76.80
42965;DHT22;28604;51.204;22.552;2023-06-26T05:30:16;20.70;76.80
42965;DHT22;28604;51.204;22.552;2023-06-26T05:32:46;20.80;76.50
42965;DHT22;28604;51.204;22.552;2023-06-26T05:35:13;20.90;76.60
42965;DHT22;28604;51.204;22.552;2023-06-26T05:37:41;20.90;76.50
42965;DHT22;28604;51.204;22.552;2023-06-26T05:40:08;21.00;76.30
42965;DHT22;28604;51.204;22.552;2023-06-26T05:42:35;21.10;76.20
42965;DHT22;28604;51.204;22.552;2023-06-26T05:45:00;21.20;76.40
42965;DHT22;28604;51.204;22.552;2023-06-26T05:47:27;21.30;76.40
42965;DHT22;28604;51.204;22.552;2023-06-26T05:49:52;21.30;76.60
42965;DHT22;28604;51.204;22.552;2023-06-26T05:52:19;21.50;76.70
42965;DHT22;28604;51.204;22.552;2023-06-26T05:54:45;21.60;76.60
42965;DHT22;28604;51.204;22.552;2023-06-26T05:57:12;21.70;76.60
42965;DHT22;28604;51.204;22.552;2023-06-26T05:59:40;21.80;76.50
42965;DHT22;28604;51.204;22.552;2023-06-26T06:02:07;22.00;76.40
42965;DHT22;28604;51.204;22.552;2023-06-26T06:04:33;22.10;75.70
42965;DHT22;28604;51.204;22.552;2023-06-26T06:07:01;22.30;75.50
42965;DHT22;28604;51.204;22.552;2023-06-26T06:09:26;22.40;74.90
42965;DHT22;28604;51.204;22.552;2023-06-26T06:11:52;22.60;74.70
42965;DHT22;28604;51.204;22.552;2023-06-26T06:14:18;22.70;73.80
42965;DHT22;28604;51.204;22.552;2023-06-26T06:16:44;22.90;73.40
42965;DHT22;28604;51.204;22.552;2023-06-26T06:19:10;23.10;73.70
42965;DHT22;28604;51.204;22.552;2023-06-26T06:21:39;23.30;72.80
42965;DHT22;28604;51.204;22.552;2023-06-26T06:24:05;23.50;71.30
42965;DHT22;28604;51.204;22.552;2023-06-26T06:26:33;23.80;70.10
42965;DHT22;28604;51.204;22.552;2023-06-26T06:28:59;24.30;68.40
42965;DHT22;28604;51.204;22.552;2023-06-26T06:33:56;24.70;67.70
42965;DHT22;28604;51.204;22.552;2023-06-26T06:36:22;25.70;65.30
42965;DHT22;28604;51.204;22.552;2023-06-26T06:38:48;26.20;63.50
42965;DHT22;28604;51.204;22.552;2023-06-26T06:41:14;26.80;62.50
42965;DHT22;28604;51.204;22.552;2023-06-26T06:43:41;27.50;57.90
42965;DHT22;28604;51.204;22.552;2023-06-26T06:46:08;28.20;55.10
42965;DHT22;28604;51.204;22.552;2023-06-26T06:48:34;28.70;54.00
42965;DHT22;28604;51.204;22.552;2023-06-26T06:51:00;29.20;52.90
42965;DHT22;28604;51.204;22.552;2023-06-26T06:53:26;29.60;53.40
42965;DHT22;28604;51.204;22.552;2023-06-26T06:55:52;30.00;52.70
42965;DHT22;28604;51.204;22.552;2023-06-26T06:58:18;30.30;51.80
42965;DHT22;28604;51.204;22.552;2023-06-26T07:00:48;30.70;51.10
42965;DHT22;28604;51.204;22.552;2023-06-26T07:03:14;30.90;51.00
42965;DHT22;28604;51.204;22.552;2023-06-26T07:05:42;31.30;51.40
42965;DHT22;28604;51.204;22.552;2023-06-26T07:08:08;31.70;50.60
42965;DHT22;28604;51.204;22.552;2023-06-26T07:10:34;31.80;49.50
42965;DHT22;28604;51.204;22.552;2023-06-26T07:13:00;32.00;49.90
42965;DHT22;28604;51.204;22.552;2023-06-26T07:15:26;32.30;47.10
42965;DHT22;28604;51.204;22.552;2023-06-26T07:17:52;32.50;47.40
42965;DHT22;28604;51.204;22.552;2023-06-26T07:20:18;32.90;47.40
42965;DHT22;28604;51.204;22.552;2023-06-26T07:22:44;33.30;46.40
42965;DHT22;28604;51.204;22.552;2023-06-26T07:25:13;33.50;46.10
42965;DHT22;28604;51.204;22.552;2023-06-26T07:27:39;33.50;45.90
42965;DHT22;28604;51.204;22.552;2023-06-26T07:30:06;33.60;46.90
42965;DHT22;28604;51.204;22.552;2023-06-26T07:32:35;33.90;45.50
42965;DHT22;28604;51.204;22.552;2023-06-26T07:35:01;34.30;45.60
42965;DHT22;28604;51.204;22.552;2023-06-26T07:37:27;34.40;45.80
42965;DHT22;28604;51.204;22.552;2023-06-26T07:39:53;34.60;45.30
42965;DHT22;28604;51.204;22.552;2023-06-26T07:42:19;34.90;44.80
42965;DHT22;28604;51.204;22.552;2023-06-26T07:44:45;35.00;44.70
42965;DHT22;28604;51.204;22.552;2023-06-26T07:47:11;35.10;44.50
42965;DHT22;28604;51.204;22.552;2023-06-26T07:49:39;35.50;43.60
42965;DHT22;28604;51.204;22.552;2023-06-26T07:52:05;35.90;42.60
42965;DHT22;28604;51.204;22.552;2023-06-26T07:54:31;36.30;42.40
42965;DHT22;28604;51.204;22.552;2023-06-26T07:56:58;36.50;42.30
42965;DHT22;28604;51.204;22.552;2023-06-26T07:59:25;36.90;42.90
42965;DHT22;28604;51.204;22.552;2023-06-26T08:01:53;37.20;41.00
42965;DHT22;28604;51.204;22.552;2023-06-26T08:04:21;37.50;39.70
42965;DHT22;28604;51.204;22.552;2023-06-26T08:06:52;37.60;39.50
42965;DHT22;28604;51.204;22.552;2023-06-26T08:09:19;37.60;39.90
42965;DHT22;28604;51.204;22.552;2023-06-26T08:11:46;37.30;40.20
42965;DHT22;28604;51.204;22.552;2023-06-26T08:14:13;37.30;40.00
42965;DHT22;28604;51.204;22.552;2023-06-26T08:16:40;37.60;39.50
42965;DHT22;28604;51.204;22.552;2023-06-26T08:19:07;37.60;40.00
42965;DHT22;28604;51.204;22.552;2023-06-26T08:21:33;37.80;39.30
42965;DHT22;28604;51.204;22.552;2023-06-26T08:23:59;38.00;39.40
42965;DHT22;28604;51.204;22.552;2023-06-26T08:26:25;38.30;39.50
42965;DHT22;28604;51.204;22.552;2023-06-26T08:28:51;38.40;39.00
42965;DHT22;28604;51.204;22.552;2023-06-26T08:31:17;38.60;38.90
42965;DHT22;28604;51.204;22.552;2023-06-26T08:33:43;38.60;38.70
42965;DHT22;28604;51.204;22.552;2023-06-26T08:36:09;38.10;38.20
42965;DHT22;28604;51.204;22.552;2023-06-26T08:38:35;37.40;38.40
42965;DHT22;28604;51.204;22.552;2023-06-26T08:41:01;36.70;39.30
42965;DHT22;28604;51.204;22.552;2023-06-26T08:43:27;36.20;39.90
42965;DHT22;28604;51.204;22.552;2023-06-26T08:45:54;35.90;40.40
42965;DHT22;28604;51.204;22.552;2023-06-26T08:48:21;35.50;40.50
42965;DHT22;28604;51.204;22.552;2023-06-26T08:50:52;35.40;41.10
42965;DHT22;28604;51.204;22.552;2023-06-26T08:53:48;35.40;41.10
42965;DHT22;28604;51.204;22.552;2023-06-26T08:56:11;35.60;41.20
42965;DHT22;28604;51.204;22.552;2023-06-26T08:58:39;35.70;40.90
42965;DHT22;28604;51.204;22.552;2023-06-26T09:01:06;35.90;41.10
42965;DHT22;28604;51.204;22.552;2023-06-26T09:03:32;36.10;40.40
42965;DHT22;28604;51.204;22.552;2023-06-26T09:05:58;36.50;40.40
42965;DHT22;28604;51.204;22.552;2023-06-26T09:08:25;36.90;39.40
42965;DHT22;28604;51.204;22.552;2023-06-26T09:10:51;37.30;40.10
42965;DHT22;28604;51.204;22.552;2023-06-26T09:13:18;37.60;38.60
42965;DHT22;28604;51.204;22.552;2023-06-26T09:15:45;38.20;38.10
42965;DHT22;28604;51.204;22.552;2023-06-26T09:18:12;38.50;37.80
42965;DHT22;28604;51.204;22.552;2023-06-26T09:20:38;38.80;37.70
42965;DHT22;28604;51.204;22.552;2023-06-26T09:23:04;39.20;38.00
42965;DHT22;28604;51.204;22.552;2023-06-26T09:25:31;39.60;37.80
42965;DHT22;28604;51.204;22.552;2023-06-26T09:27:57;39.80;38.10
42965;DHT22;28604;51.204;22.552;2023-06-26T09:30:23;39.40;38.80
42965;DHT22;28604;51.204;22.552;2023-06-26T09:32:50;39.20;38.60
42965;DHT22;28604;51.204;22.552;2023-06-26T09:35:16;39.20;38.50
42965;DHT22;28604;51.204;22.552;2023-06-26T09:37:43;38.90;38.40
42965;DHT22;28604;51.204;22.552;2023-06-26T09:40:09;38.70;38.70
42965;DHT22;28604;51.204;22.552;2023-06-26T09:42:36;38.40;38.80
42965;DHT22;28604;51.204;22.552;2023-06-26T09:45:02;38.20;39.90
42965;DHT22;28604;51.204;22.552;2023-06-26T09:47:34;38.10;39.40
42965;DHT22;28604;51.204;22.552;2023-06-26T09:50:02;38.20;39.10
42965;DHT22;28604;51.204;22.552;2023-06-26T09:52:29;38.20;38.70
42965;DHT22;28604;51.204;22.552;2023-06-26T09:55:08;38.10;39.20
42965;DHT22;28604;51.204;22.552;2023-06-26T09:57:35;37.80;39.40
42965;DHT22;28604;51.204;22.552;2023-06-26T10:00:03;37.40;39.90
42965;DHT22;28604;51.204;22.552;2023-06-26T10:02:38;37.20;40.30
42965;DHT22;28604;51.204;22.552;2023-06-26T10:05:04;37.20;39.90
42965;DHT22;28604;51.204;22.552;2023-06-26T10:07:31;37.40;40.10
42965;DHT22;28604;51.204;22.552;2023-06-26T10:09:57;37.90;39.90
42965;DHT22;28604;51.204;22.552;2023-06-26T10:12:30;38.20;39.90
42965;DHT22;28604;51.204;22.552;2023-06-26T10:14:57;38.80;39.40
42965;DHT22;28604;51.204;22.552;2023-06-26T10:17:27;39.00;39.30
42965;DHT22;28604;51.204;22.552;2023-06-26T10:19:55;39.20;38.90
42965;DHT22;28604;51.204;22.552;2023-06-26T10:22:27;39.50;39.40
42965;DHT22;28604;51.204;22.552;2023-06-26T10:24:55;39.70;39.40
42965;DHT22;28604;51.204;22.552;2023-06-26T10:27:27;39.80;39.30
42965;DHT22;28604;51.204;22.552;2023-06-26T10:29:56;40.00;39.50
42965;DHT22;28604;51.204;22.552;2023-06-26T10:32:25;40.10;38.90
42965;DHT22;28604;51.204;22.552;2023-06-26T10:34:52;40.30;37.80
42965;DHT22;28604;51.204;22.552;2023-06-26T10:37:18;40.40;37.70
42965;DHT22;28604;51.204;22.552;2023-06-26T10:39:54;40.60;37.90
42965;DHT22;28604;51.204;22.552;2023-06-26T10:42:37;40.90;38.70
42965;DHT22;28604;51.204;22.552;2023-06-26T10:45:15;41.20;37.50
42965;DHT22;28604;51.204;22.552;2023-06-26T10:47:45;41.30;37.50
42965;DHT22;28604;51.204;22.552;2023-06-26T10:50:28;41.30;37.80
42965;DHT22;28604;51.204;22.552;2023-06-26T10:55:51;40.70;37.80
42965;DHT22;28604;51.204;22.552;2023-06-26T11:01:17;40.20;37.70
42965;DHT22;28604;51.204;22.552;2023-06-26T11:06:24;39.60;38.10
42965;DHT22;28604;51.204;22.552;2023-06-26T11:08:52;39.60;37.60
42965;DHT22;28604;51.204;22.552;2023-06-26T11:11:20;39.50;37.70
42965;DHT22;28604;51.204;22.552;2023-06-26T11:13:47;39.40;38.10
42965;DHT22;28604;51.204;22.552;2023-06-26T11:16:14;38.90;38.70
42965;DHT22;28604;51.204;22.552;2023-06-26T11:18:41;39.00;38.30
42965;DHT22;28604;51.204;22.552;2023-06-26T11:21:11;39.00;38.20
42965;DHT22;28604;51.204;22.552;2023-06-26T11:23:40;38.90;38.50
42965;DHT22;28604;51.204;22.552;2023-06-26T11:26:20;38.70;38.60
42965;DHT22;28604;51.204;22.552;2023-06-26T11:28:59;38.30;38.50
42965;DHT22;28604;51.204;22.552;2023-06-26T11:31:25;38.20;39.00
42965;DHT22;28604;51.204;22.552;2023-06-26T11:33:53;38.20;39.20
42965;DHT22;28604;51.204;22.552;2023-06-26T11:36:19;38.20;39.10
42965;DHT22;28604;51.204;22.552;2023-06-26T11:38:45;38.00;38.70
42965;DHT22;28604;51.204;22.552;2023-06-26T11:41:16;37.80;39.40
42965;DHT22;28604;51.204;22.552;2023-06-26T11:43:42;37.80;39.70
42965;DHT22;28604;51.204;22.552;2023-06-26T11:46:08;37.60;39.30
42965;DHT22;28604;51.204;22.552;2023-06-26T11:48:35;37.50;39.20
42965;DHT22;28604;51.204;22.552;2023-06-26T11:51:03;37.30;39.90
42965;DHT22;28604;51.204;22.552;2023-06-26T11:53:29;37.20;40.50
42965;DHT22;28604;51.204;22.552;2023-06-26T11:55:55;37.20;40.30
42965;DHT22;28604;51.204;22.552;2023-06-26T11:58:23;37.20;40.10
42965;DHT22;28604;51.204;22.552;2023-06-26T12:00:48;37.10;40.10
42965;DHT22;28604;51.204;22.552;2023-06-26T12:03:15;37.00;40.00
42965;DHT22;28604;51.204;22.552;2023-06-26T12:05:41;36.90;40.70
42965;DHT22;28604;51.204;22.552;2023-06-26T12:08:11;36.90;41.40
42965;DHT22;28604;51.204;22.552;2023-06-26T12:10:36;37.00;40.40
42965;DHT22;28604;51.204;22.552;2023-06-26T12:13:03;36.80;40.40
42965;DHT22;28604;51.204;22.552;2023-06-26T12:15:29;36.80;41.00
42965;DHT22;28604;51.204;22.552;2023-06-26T12:17:55;36.70;41.20
42965;DHT22;28604;51.204;22.552;2023-06-26T12:20:22;36.60;41.20
42965;DHT22;28604;51.204;22.552;2023-06-26T12:22:50;36.60;41.40
42965;DHT22;28604;51.204;22.552;2023-06-26T12:25:20;36.50;41.00
42965;DHT22;28604;51.204;22.552;2023-06-26T12:27:47;36.40;41.60
42965;DHT22;28604;51.204;22.552;2023-06-26T12:30:12;36.50;41.50
42965;DHT22;28604;51.204;22.552;2023-06-26T12:32:39;36.50;41.50
42965;DHT22;28604;51.204;22.552;2023-06-26T12:35:05;36.50;41.70
42965;DHT22;28604;51.204;22.552;2023-06-26T12:37:36;36.40;41.70
42965;DHT22;28604;51.204;22.552;2023-06-26T12:40:03;36.20;41.50
42965;DHT22;28604;51.204;22.552;2023-06-26T12:42:33;36.10;41.20
42965;DHT22;28604;51.204;22.552;2023-06-26T12:44:59;36.00;41.00
42965;DHT22;28604;51.204;22.552;2023-06-26T12:47:35;36.00;41.40
42965;DHT22;28604;51.204;22.552;2023-06-26T12:50:07;35.90;41.80
42965;DHT22;28604;51.204;22.552;2023-06-26T12:52:33;35.90;41.20
42965;DHT22;28604;51.204;22.552;2023-06-26T12:54:59;35.80;41.40
42965;DHT22;28604;51.204;22.552;2023-06-26T12:57:25;35.80;41.40
42965;DHT22;28604;51.204;22.552;2023-06-26T12:59:52;35.80;41.90
42965;DHT22;28604;51.204;22.552;2023-06-26T13:02:18;35.70;41.40
42965;DHT22;28604;51.204;22.552;2023-06-26T13:04:44;35.50;42.30
42965;DHT22;28604;51.204;22.552;2023-06-26T13:07:11;35.50;43.30
42965;DHT22;28604;51.204;22.552;2023-06-26T13:09:37;35.50;42.30
42965;DHT22;28604;51.204;22.552;2023-06-26T13:12:05;35.50;42.30
42965;DHT22;28604;51.204;22.552;2023-06-26T13:14:32;35.50;42.00
42965;DHT22;28604;51.204;22.552;2023-06-26T13:17:00;35.50;42.60
42965;DHT22;28604;51.204;22.552;2023-06-26T13:19:26;35.40;41.90
42965;DHT22;28604;51.204;22.552;2023-06-26T13:21:54;35.30;41.10
42965;DHT22;28604;51.204;22.552;2023-06-26T13:24:20;35.20;41.30
42965;DHT22;28604;51.204;22.552;2023-06-26T13:26:46;35.00;42.00
42965;DHT22;28604;51.204;22.552;2023-06-26T13:29:12;34.90;42.00
42965;DHT22;28604;51.204;22.552;2023-06-26T13:31:38;34.80;42.20
42965;DHT22;28604;51.204;22.552;2023-06-26T13:34:04;34.90;42.10
42965;DHT22;28604;51.204;22.552;2023-06-26T13:36:31;34.80;40.90
42965;DHT22;28604;51.204;22.552;2023-06-26T13:38:59;34.70;41.20
42965;DHT22;28604;51.204;22.552;2023-06-26T13:41:25;34.70;41.40
42965;DHT22;28604;51.204;22.552;2023-06-26T13:43:52;34.50;41.10
42965;DHT22;28604;51.204;22.552;2023-06-26T13:46:18;34.40;41.70
42965;DHT22;28604;51.204;22.552;2023-06-26T13:48:45;34.30;41.90
42965;DHT22;28604;51.204;22.552;2023-06-26T13:51:11;34.30;42.00
42965;DHT22;28604;51.204;22.552;2023-06-26T13:56:04;34.10;41.20
42965;DHT22;28604;51.204;22.552;2023-06-26T13:58:30;34.00;42.90
42965;DHT22;28604;51.204;22.552;2023-06-26T14:00:59;33.90;41.90
42965;DHT22;28604;51.204;22.552;2023-06-26T14:03:26;33.90;42.00
42965;DHT22;28604;51.204;22.552;2023-06-26T14:05:53;33.80;42.10
42965;DHT22;28604;51.204;22.552;2023-06-26T14:08:19;33.70;41.80
42965;DHT22;28604;51.204;22.552;2023-06-26T14:10:45;33.50;42.20
42965;DHT22;28604;51.204;22.552;2023-06-26T14:13:10;33.40;42.70
42965;DHT22;28604;51.204;22.552;2023-06-26T14:15:42;33.30;42.90
42965;DHT22;28604;51.204;22.552;2023-06-26T14:18:08;33.30;43.10
42965;DHT22;28604;51.204;22.552;2023-06-26T14:20:34;33.30;42.30
42965;DHT22;28604;51.204;22.552;2023-06-26T14:23:01;33.20;42.70
42965;DHT22;28604;51.204;22.552;2023-06-26T14:25:28;33.30;42.60
42965;DHT22;28604;51.204;22.552;2023-06-26T14:27:58;33.20;41.50
42965;DHT22;28604;51.204;22.552;2023-06-26T14:30:23;33.30;42.20
42965;DHT22;28604;51.204;22.552;2023-06-26T14:32:50;33.20;42.10
42965;DHT22;28604;51.204;22.552;2023-06-26T14:35:16;33.20;42.40
42965;DHT22;28604;51.204;22.552;2023-06-26T14:37:42;33.20;42.30
42965;DHT22;28604;51.204;22.552;2023-06-26T14:40:09;33.20;42.30
42965;DHT22;28604;51.204;22.552;2023-06-26T14:42:36;33.20;42.40
42965;DHT22;28604;51.204;22.552;2023-06-26T14:45:02;33.10;41.40
42965;DHT22;28604;51.204;22.552;2023-06-26T14:47:29;33.10;40.70
42965;DHT22;28604;51.204;22.552;2023-06-26T14:49:54;33.10;41.40
42965;DHT22;28604;51.204;22.552;2023-06-26T14:54:47;33.00;41.50
42965;DHT22;28604;51.204;22.552;2023-06-26T14:57:13;32.90;41.80
42965;DHT22;28604;51.204;22.552;2023-06-26T14:59:39;32.80;42.00
42965;DHT22;28604;51.204;22.552;2023-06-26T15:02:05;32.80;42.00
42965;DHT22;28604;51.204;22.552;2023-06-26T15:04:31;32.70;41.50
42965;DHT22;28604;51.204;22.552;2023-06-26T15:06:58;32.70;41.90
42965;DHT22;28604;51.204;22.552;2023-06-26T15:09:24;32.70;42.30
42965;DHT22;28604;51.204;22.552;2023-06-26T15:11:50;32.60;42.30
42965;DHT22;28604;51.204;22.552;2023-06-26T15:14:15;32.50;42.50
42965;DHT22;28604;51.204;22.552;2023-06-26T15:16:41;32.50;42.60
42965;DHT22;28604;51.204;22.552;2023-06-26T15:19:07;32.30;42.90
42965;DHT22;28604;51.204;22.552;2023-06-26T15:21:35;32.30;43.10
42965;DHT22;28604;51.204;22.552;2023-06-26T15:24:01;32.20;43.70
42965;DHT22;28604;51.204;22.552;2023-06-26T15:26:27;32.20;43.60
42965;DHT22;28604;51.204;22.552;2023-06-26T15:28:53;32.10;43.00
42965;DHT22;28604;51.204;22.552;2023-06-26T15:31:20;32.10;42.70
42965;DHT22;28604;51.204;22.552;2023-06-26T15:33:46;32.00;42.80
42965;DHT22;28604;51.204;22.552;2023-06-26T15:36:12;32.00;42.90
42965;DHT22;28604;51.204;22.552;2023-06-26T15:38:38;31.90;43.90